Fes, Morocco
Current Conditions -  °F | °C
As of 7:00 PM on Monday 26 Jan 2015 (Local Time) from GMFF Reporting Station
Clear Clear  
Wind Chill: 11°   Ceiling: Unl
Heat Index: 11°   Visibility: 6mi
Dew Point:   Wind: 2mph
Humidity: 82%   Direction: 320°NW
Pressure: 30.33"   Gusts: NA
Location:  34.05°N, 5°W
Report Text: GMFF 261800Z 32002KT 250V350 CAVOK 11/08 Q1027 NOSIG
Loading
Personal Weather Stations






























Interactive Weather Map New forecast layout! Learn more

10-Day Weather Forecast

Advertisements
Track Severe Weather on mobile